sensor_id;sensor_type;location;lat;lon;timestamp;P1;durP1;ratioP1;P2;durP2;ratioP2
11090;SDS011;5599;52.210;21.046;2023-04-01T00:01:39;11.97;;;10.07;;
11090;SDS011;5599;52.210;21.046;2023-04-01T00:04:08;12.77;;;9.50;;
11090;SDS011;5599;52.210;21.046;2023-04-01T00:06:38;11.57;;;9.80;;
11090;SDS011;5599;52.210;21.046;2023-04-01T00:09:07;16.77;;;14.80;;
11090;SDS011;5599;52.210;21.046;2023-04-01T00:11:36;19.80;;;13.10;;
11090;SDS011;5599;52.210;21.046;2023-04-01T00:14:07;13.03;;;10.40;;
11090;SDS011;5599;52.210;21.046;2023-04-01T00:16:36;14.03;;;10.70;;
11090;SDS011;5599;52.210;21.046;2023-04-01T00:19:06;11.63;;;9.73;;
11090;SDS011;5599;52.210;21.046;2023-04-01T00:21:35;12.97;;;9.90;;
11090;SDS011;5599;52.210;21.046;2023-04-01T00:24:05;11.80;;;10.03;;
11090;SDS011;5599;52.210;21.046;2023-04-01T00:26:34;13.63;;;11.03;;
11090;SDS011;5599;52.210;21.046;2023-04-01T00:29:03;11.70;;;10.50;;
11090;SDS011;5599;52.210;21.046;2023-04-01T00:31:34;12.87;;;11.57;;
11090;SDS011;5599;52.210;21.046;2023-04-01T00:34:03;12.63;;;11.20;;
11090;SDS011;5599;52.210;21.046;2023-04-01T00:36:32;12.13;;;10.83;;
11090;SDS011;5599;52.210;21.046;2023-04-01T00:39:02;13.53;;;10.90;;
11090;SDS011;5599;52.210;21.046;2023-04-01T00:41:31;13.17;;;11.30;;
11090;SDS011;5599;52.210;21.046;2023-04-01T00:44:14;11.73;;;10.53;;
11090;SDS011;5599;52.210;21.046;2023-04-01T00:46:47;13.03;;;11.10;;
11090;SDS011;5599;52.210;21.046;2023-04-01T00:49:18;13.07;;;11.07;;
11090;SDS011;5599;52.210;21.046;2023-04-01T00:51:51;16.70;;;11.53;;
11090;SDS011;5599;52.210;21.046;2023-04-01T00:54:24;12.23;;;11.03;;
11090;SDS011;5599;52.210;21.046;2023-04-01T00:56:55;12.67;;;11.37;;
11090;SDS011;5599;52.210;21.046;2023-04-01T00:59:29;17.27;;;11.83;;
11090;SDS011;5599;52.210;21.046;2023-04-01T01:02:03;12.13;;;10.83;;
11090;SDS011;5599;52.210;21.046;2023-04-01T01:04:34;13.80;;;11.57;;
11090;SDS011;5599;52.210;21.046;2023-04-01T01:07:07;15.20;;;11.83;;
11090;SDS011;5599;52.210;21.046;2023-04-01T01:09:49;13.37;;;11.47;;
11090;SDS011;5599;52.210;21.046;2023-04-01T01:12:23;11.83;;;10.63;;
11090;SDS011;5599;52.210;21.046;2023-04-01T01:15:00;12.53;;;11.23;;
11090;SDS011;5599;52.210;21.046;2023-04-01T01:17:40;13.43;;;12.03;;
11090;SDS011;5599;52.210;21.046;2023-04-01T01:20:33;12.40;;;11.17;;
11090;SDS011;5599;52.210;21.046;2023-04-01T01:29:28;14.27;;;12.77;;
11090;SDS011;5599;52.210;21.046;2023-04-01T01:32:30;12.97;;;11.77;;
11090;SDS011;5599;52.210;21.046;2023-04-01T01:35:26;13.53;;;12.13;;
11090;SDS011;5599;52.210;21.046;2023-04-01T01:38:02;14.13;;;12.63;;
11090;SDS011;5599;52.210;21.046;2023-04-01T01:40:34;14.77;;;13.17;;
11090;SDS011;5599;52.210;21.046;2023-04-01T01:43:08;16.30;;;13.63;;
11090;SDS011;5599;52.210;21.046;2023-04-01T01:45:40;14.23;;;12.83;;
11090;SDS011;5599;52.210;21.046;2023-04-01T01:48:14;16.43;;;13.00;;
11090;SDS011;5599;52.210;21.046;2023-04-01T01:50:46;16.63;;;13.83;;
11090;SDS011;5599;52.210;21.046;2023-04-01T01:53:17;15.10;;;13.33;;
11090;SDS011;5599;52.210;21.046;2023-04-01T01:55:46;15.03;;;12.93;;
11090;SDS011;5599;52.210;21.046;2023-04-01T01:58:17;16.77;;;14.13;;
11090;SDS011;5599;52.210;21.046;2023-04-01T02:00:52;15.87;;;13.40;;
11090;SDS011;5599;52.210;21.046;2023-04-01T02:03:25;16.57;;;13.03;;
11090;SDS011;5599;52.210;21.046;2023-04-01T02:05:58;15.60;;;13.40;;
11090;SDS011;5599;52.210;21.046;2023-04-01T02:08:31;16.67;;;12.93;;
11090;SDS011;5599;52.210;21.046;2023-04-01T02:11:05;14.90;;;12.70;;
11090;SDS011;5599;52.210;21.046;2023-04-01T02:13:40;16.27;;;12.87;;
11090;SDS011;5599;52.210;21.046;2023-04-01T02:16:13;14.57;;;12.90;;
11090;SDS011;5599;52.210;21.046;2023-04-01T02:18:48;13.57;;;12.13;;
11090;SDS011;5599;52.210;21.046;2023-04-01T02:21:22;14.77;;;12.67;;
11090;SDS011;5599;52.210;21.046;2023-04-01T02:23:56;15.60;;;13.20;;
11090;SDS011;5599;52.210;21.046;2023-04-01T02:26:26;17.37;;;13.23;;
11090;SDS011;5599;52.210;21.046;2023-04-01T02:28:56;14.70;;;13.13;;
11090;SDS011;5599;52.210;21.046;2023-04-01T02:31:28;14.80;;;13.23;;
11090;SDS011;5599;52.210;21.046;2023-04-01T02:33:58;15.93;;;14.23;;
11090;SDS011;5599;52.210;21.046;2023-04-01T02:36:30;15.93;;;14.23;;
11090;SDS011;5599;52.210;21.046;2023-04-01T02:39:00;15.33;;;13.73;;
11090;SDS011;5599;52.210;21.046;2023-04-01T02:41:31;17.13;;;14.43;;
11090;SDS011;5599;52.210;21.046;2023-04-01T02:44:07;16.43;;;14.73;;
11090;SDS011;5599;52.210;21.046;2023-04-01T02:46:37;16.70;;;14.87;;
11090;SDS011;5599;52.210;21.046;2023-04-01T02:49:06;19.10;;;15.10;;
11090;SDS011;5599;52.210;21.046;2023-04-01T02:51:37;17.00;;;14.57;;
11090;SDS011;5599;52.210;21.046;2023-04-01T02:54:06;17.90;;;16.00;;
11090;SDS011;5599;52.210;21.046;2023-04-01T02:56:36;17.10;;;15.30;;
11090;SDS011;5599;52.210;21.046;2023-04-01T02:59:05;16.57;;;14.90;;
11090;SDS011;5599;52.210;21.046;2023-04-01T03:01:34;18.27;;;16.00;;
11090;SDS011;5599;52.210;21.046;2023-04-01T03:04:04;17.87;;;15.80;;
11090;SDS011;5599;52.210;21.046;2023-04-01T03:06:33;19.33;;;15.30;;
11090;SDS011;5599;52.210;21.046;2023-04-01T03:09:04;18.93;;;16.73;;
11090;SDS011;5599;52.210;21.046;2023-04-01T03:11:33;17.87;;;15.97;;
11090;SDS011;5599;52.210;21.046;2023-04-01T03:14:02;19.07;;;17.07;;
11090;SDS011;5599;52.210;21.046;2023-04-01T03:16:32;18.03;;;16.17;;
11090;SDS011;5599;52.210;21.046;2023-04-01T03:19:01;18.20;;;16.23;;
11090;SDS011;5599;52.210;21.046;2023-04-01T03:21:30;20.07;;;17.97;;
11090;SDS011;5599;52.210;21.046;2023-04-01T03:24:00;19.13;;;17.13;;
11090;SDS011;5599;52.210;21.046;2023-04-01T03:26:31;21.87;;;18.47;;
11090;SDS011;5599;52.210;21.046;2023-04-01T03:29:00;20.00;;;17.90;;
11090;SDS011;5599;52.210;21.046;2023-04-01T03:31:29;21.33;;;19.23;;
11090;SDS011;5599;52.210;21.046;2023-04-01T03:33:59;19.20;;;17.37;;
11090;SDS011;5599;52.210;21.046;2023-04-01T03:36:28;21.03;;;18.83;;
11090;SDS011;5599;52.210;21.046;2023-04-01T03:38:57;18.50;;;16.70;;
11090;SDS011;5599;52.210;21.046;2023-04-01T03:41:37;20.63;;;17.80;;
11090;SDS011;5599;52.210;21.046;2023-04-01T03:44:06;19.77;;;17.73;;
11090;SDS011;5599;52.210;21.046;2023-04-01T03:46:35;18.30;;;16.60;;
11090;SDS011;5599;52.210;21.046;2023-04-01T03:49:06;18.60;;;16.50;;
11090;SDS011;5599;52.210;21.046;2023-04-01T03:51:38;18.33;;;16.43;;
11090;SDS011;5599;52.210;21.046;2023-04-01T03:54:09;18.80;;;16.53;;
11090;SDS011;5599;52.210;21.046;2023-04-01T03:56:40;17.03;;;15.40;;
11090;SDS011;5599;52.210;21.046;2023-04-01T03:59:10;17.70;;;15.93;;
11090;SDS011;5599;52.210;21.046;2023-04-01T04:01:40;17.43;;;15.67;;
11090;SDS011;5599;52.210;21.046;2023-04-01T04:04:10;18.40;;;16.43;;
11090;SDS011;5599;52.210;21.046;2023-04-01T04:06:42;19.73;;;16.90;;
11090;SDS011;5599;52.210;21.046;2023-04-01T04:09:11;17.73;;;15.83;;
11090;SDS011;5599;52.210;21.046;2023-04-01T04:11:42;18.60;;;16.70;;
11090;SDS011;5599;52.210;21.046;2023-04-01T04:14:11;17.60;;;15.60;;
11090;SDS011;5599;52.210;21.046;2023-04-01T04:16:40;17.90;;;16.10;;
11090;SDS011;5599;52.210;21.046;2023-04-01T04:19:10;17.43;;;15.73;;
11090;SDS011;5599;52.210;21.046;2023-04-01T04:21:39;16.43;;;14.83;;
11090;SDS011;5599;52.210;21.046;2023-04-01T04:24:09;17.20;;;15.17;;
11090;SDS011;5599;52.210;21.046;2023-04-01T04:27:06;17.63;;;15.60;;
11090;SDS011;5599;52.210;21.046;2023-04-01T04:29:42;15.50;;;14.07;;
11090;SDS011;5599;52.210;21.046;2023-04-01T04:32:12;16.63;;;14.93;;
11090;SDS011;5599;52.210;21.046;2023-04-01T04:34:41;16.30;;;14.70;;
11090;SDS011;5599;52.210;21.046;2023-04-01T04:37:10;16.83;;;14.67;;
11090;SDS011;5599;52.210;21.046;2023-04-01T04:39:39;15.43;;;13.70;;
11090;SDS011;5599;52.210;21.046;2023-04-01T04:42:10;15.17;;;13.60;;
11090;SDS011;5599;52.210;21.046;2023-04-01T04:44:39;13.67;;;12.37;;
11090;SDS011;5599;52.210;21.046;2023-04-01T04:47:08;13.70;;;12.40;;
11090;SDS011;5599;52.210;21.046;2023-04-01T04:49:38;14.27;;;12.70;;
11090;SDS011;5599;52.210;21.046;2023-04-01T04:52:09;14.80;;;13.30;;
11090;SDS011;5599;52.210;21.046;2023-04-01T04:54:38;13.60;;;12.33;;
11090;SDS011;5599;52.210;21.046;2023-04-01T04:57:07;14.00;;;12.70;;
11090;SDS011;5599;52.210;21.046;2023-04-01T04:59:44;13.10;;;11.80;;
11090;SDS011;5599;52.210;21.046;2023-04-01T05:02:25;13.70;;;12.27;;
11090;SDS011;5599;52.210;21.046;2023-04-01T05:04:54;11.97;;;10.50;;
11090;SDS011;5599;52.210;21.046;2023-04-01T05:07:24;11.87;;;10.77;;
11090;SDS011;5599;52.210;21.046;2023-04-01T05:09:53;12.00;;;10.90;;
11090;SDS011;5599;52.210;21.046;2023-04-01T05:12:22;11.53;;;10.53;;
11090;SDS011;5599;52.210;21.046;2023-04-01T05:14:59;12.07;;;10.90;;
11090;SDS011;5599;52.210;21.046;2023-04-01T05:17:28;10.63;;;9.70;;
11090;SDS011;5599;52.210;21.046;2023-04-01T05:19:58;10.97;;;9.87;;
11090;SDS011;5599;52.210;21.046;2023-04-01T05:22:28;11.57;;;10.17;;
11090;SDS011;5599;52.210;21.046;2023-04-01T05:24:57;12.93;;;10.43;;
11090;SDS011;5599;52.210;21.046;2023-04-01T05:27:28;10.77;;;9.70;;
11090;SDS011;5599;52.210;21.046;2023-04-01T05:29:58;12.87;;;10.73;;
11090;SDS011;5599;52.210;21.046;2023-04-01T05:32:48;10.07;;;9.13;;
11090;SDS011;5599;52.210;21.046;2023-04-01T05:35:17;11.07;;;9.97;;
11090;SDS011;5599;52.210;21.046;2023-04-01T05:37:47;10.50;;;9.50;;
11090;SDS011;5599;52.210;21.046;2023-04-01T05:40:16;9.97;;;8.93;;
11090;SDS011;5599;52.210;21.046;2023-04-01T05:42:45;10.07;;;9.17;;
11090;SDS011;5599;52.210;21.046;2023-04-01T05:45:17;10.10;;;9.10;;
11090;SDS011;5599;52.210;21.046;2023-04-01T05:48:05;10.87;;;8.17;;
11090;SDS011;5599;52.210;21.046;2023-04-01T05:50:39;10.60;;;8.77;;
11090;SDS011;5599;52.210;21.046;2023-04-01T05:53:10;9.33;;;8.50;;
11090;SDS011;5599;52.210;21.046;2023-04-01T05:55:42;10.23;;;9.33;;
11090;SDS011;5599;52.210;21.046;2023-04-01T05:58:12;11.00;;;9.87;;
11090;SDS011;5599;52.210;21.046;2023-04-01T06:00:46;10.17;;;9.17;;
11090;SDS011;5599;52.210;21.046;2023-04-01T06:03:28;9.93;;;9.03;;
11090;SDS011;5599;52.210;21.046;2023-04-01T06:05:57;9.70;;;8.70;;
11090;SDS011;5599;52.210;21.046;2023-04-01T06:08:29;9.30;;;8.40;;
11090;SDS011;5599;52.210;21.046;2023-04-01T06:11:03;9.17;;;7.93;;
11090;SDS011;5599;52.210;21.046;2023-04-01T06:13:47;7.97;;;7.03;;
11090;SDS011;5599;52.210;21.046;2023-04-01T06:16:32;8.37;;;7.57;;
11090;SDS011;5599;52.210;21.046;2023-04-01T06:19:22;9.00;;;8.20;;
11090;SDS011;5599;52.210;21.046;2023-04-01T06:22:06;9.77;;;8.77;;
11090;SDS011;5599;52.210;21.046;2023-04-01T06:25:09;9.80;;;8.90;;
11090;SDS011;5599;52.210;21.046;2023-04-01T06:28:03;10.27;;;8.97;;
11090;SDS011;5599;52.210;21.046;2023-04-01T06:30:52;10.67;;;9.67;;
11090;SDS011;5599;52.210;21.046;2023-04-01T06:33:42;11.10;;;10.10;;
11090;SDS011;5599;52.210;21.046;2023-04-01T06:36:24;11.07;;;9.80;;
11090;SDS011;5599;52.210;21.046;2023-04-01T06:39:11;11.47;;;10.43;;
11090;SDS011;5599;52.210;21.046;2023-04-01T06:42:04;11.87;;;10.77;;
11090;SDS011;5599;52.210;21.046;2023-04-01T06:44:49;12.90;;;11.80;;
11090;SDS011;5599;52.210;21.046;2023-04-01T06:47:54;12.67;;;11.47;;
11090;SDS011;5599;52.210;21.046;2023-04-01T06:50:56;13.87;;;12.40;;
11090;SDS011;5599;52.210;21.046;2023-04-01T06:53:50;14.00;;;12.70;;
11090;SDS011;5599;52.210;21.046;2023-04-01T06:56:44;14.47;;;13.13;;
11090;SDS011;5599;52.210;21.046;2023-04-01T06:59:22;15.73;;;14.23;;
11090;SDS011;5599;52.210;21.046;2023-04-01T07:01:57;14.17;;;12.77;;
11090;SDS011;5599;52.210;21.046;2023-04-01T07:04:30;13.70;;;12.47;;
11090;SDS011;5599;52.210;21.046;2023-04-01T07:07:05;14.97;;;13.47;;
11090;SDS011;5599;52.210;21.046;2023-04-01T07:09:50;14.83;;;13.53;;
11090;SDS011;5599;52.210;21.046;2023-04-01T07:12:33;14.30;;;12.90;;
11090;SDS011;5599;52.210;21.046;2023-04-01T07:15:54;13.33;;;12.13;;
11090;SDS011;5599;52.210;21.046;2023-04-01T07:18:30;13.47;;;12.17;;
11090;SDS011;5599;52.210;21.046;2023-04-01T07:21:05;12.17;;;11.07;;
11090;SDS011;5599;52.210;21.046;2023-04-01T07:23:45;13.03;;;11.77;;
11090;SDS011;5599;52.210;21.046;2023-04-01T07:26:32;14.23;;;12.93;;
11090;SDS011;5599;52.210;21.046;2023-04-01T07:29:01;13.30;;;12.00;;
11090;SDS011;5599;52.210;21.046;2023-04-01T07:35:07;15.30;;;13.70;;
11090;SDS011;5599;52.210;21.046;2023-04-01T07:37:46;15.90;;;14.40;;
11090;SDS011;5599;52.210;21.046;2023-04-01T07:40:26;17.97;;;16.27;;
11090;SDS011;5599;52.210;21.046;2023-04-01T07:46:30;18.37;;;16.63;;
11090;SDS011;5599;52.210;21.046;2023-04-01T07:49:11;19.17;;;17.30;;
11090;SDS011;5599;52.210;21.046;2023-04-01T07:51:47;18.70;;;16.93;;
11090;SDS011;5599;52.210;21.046;2023-04-01T07:54:22;20.80;;;18.90;;
11090;SDS011;5599;52.210;21.046;2023-04-01T07:56:59;18.87;;;17.23;;
11090;SDS011;5599;52.210;21.046;2023-04-01T07:59:52;17.63;;;15.87;;
11090;SDS011;5599;52.210;21.046;2023-04-01T08:03:07;16.47;;;14.77;;
11090;SDS011;5599;52.210;21.046;2023-04-01T08:05:53;16.30;;;14.90;;
11090;SDS011;5599;52.210;21.046;2023-04-01T08:08:30;15.63;;;14.33;;
11090;SDS011;5599;52.210;21.046;2023-04-01T08:11:46;15.40;;;13.97;;
11090;SDS011;5599;52.210;21.046;2023-04-01T08:14:48;16.00;;;14.40;;
11090;SDS011;5599;52.210;21.046;2023-04-01T08:17:46;16.93;;;15.37;;
11090;SDS011;5599;52.210;21.046;2023-04-01T08:20:28;15.13;;;13.83;;
11090;SDS011;5599;52.210;21.046;2023-04-01T08:23:05;15.83;;;14.20;;
11090;SDS011;5599;52.210;21.046;2023-04-01T08:25:42;13.83;;;12.50;;
11090;SDS011;5599;52.210;21.046;2023-04-01T08:28:19;13.90;;;12.37;;
11090;SDS011;5599;52.210;21.046;2023-04-01T08:30:56;13.80;;;12.57;;
11090;SDS011;5599;52.210;21.046;2023-04-01T08:33:30;10.50;;;9.60;;
11090;SDS011;5599;52.210;21.046;2023-04-01T08:36:12;10.97;;;9.97;;
11090;SDS011;5599;52.210;21.046;2023-04-01T08:38:49;12.73;;;11.50;;
11090;SDS011;5599;52.210;21.046;2023-04-01T08:44:34;10.53;;;9.63;;
11090;SDS011;5599;52.210;21.046;2023-04-01T08:47:33;11.33;;;10.33;;
11090;SDS011;5599;52.210;21.046;2023-04-01T08:50:19;11.70;;;10.63;;
11090;SDS011;5599;52.210;21.046;2023-04-01T08:53:12;10.20;;;9.20;;
11090;SDS011;5599;52.210;21.046;2023-04-01T08:55:56;10.20;;;9.30;;
11090;SDS011;5599;52.210;21.046;2023-04-01T08:58:39;10.40;;;8.87;;
11090;SDS011;5599;52.210;21.046;2023-04-01T09:01:45;9.10;;;8.20;;
11090;SDS011;5599;52.210;21.046;2023-04-01T09:04:49;8.70;;;7.87;;
11090;SDS011;5599;52.210;21.046;2023-04-01T09:07:34;9.23;;;8.50;;
11090;SDS011;5599;52.210;21.046;2023-04-01T09:10:15;10.33;;;8.40;;
11090;SDS011;5599;52.210;21.046;2023-04-01T09:13:39;8.20;;;7.40;;
11090;SDS011;5599;52.210;21.046;2023-04-01T09:16:31;5.70;;;5.20;;
11090;SDS011;5599;52.210;21.046;2023-04-01T09:19:21;5.57;;;5.07;;
11090;SDS011;5599;52.210;21.046;2023-04-01T09:28:09;6.70;;;5.53;;
11090;SDS011;5599;52.210;21.046;2023-04-01T09:30:57;6.93;;;6.23;;
11090;SDS011;5599;52.210;21.046;2023-04-01T09:34:08;6.60;;;6.03;;
11090;SDS011;5599;52.210;21.046;2023-04-01T09:37:03;7.47;;;6.87;;
11090;SDS011;5599;52.210;21.046;2023-04-01T09:43:25;7.60;;;6.80;;
11090;SDS011;5599;52.210;21.046;2023-04-01T09:46:08;7.57;;;6.90;;
11090;SDS011;5599;52.210;21.046;2023-04-01T09:48:50;7.67;;;6.90;;
11090;SDS011;5599;52.210;21.046;2023-04-01T09:51:36;5.72;;;4.75;;
11090;SDS011;5599;52.210;21.046;2023-04-01T09:54:18;4.00;;;3.70;;
11090;SDS011;5599;52.210;21.046;2023-04-01T10:04:11;3.50;;;3.20;;
11090;SDS011;5599;52.210;21.046;2023-04-01T10:13:46;4.47;;;4.07;;
11090;SDS011;5599;52.210;21.046;2023-04-01T10:20:08;4.73;;;4.30;;
11090;SDS011;5599;52.210;21.046;2023-04-01T10:26:07;5.33;;;4.80;;
11090;SDS011;5599;52.210;21.046;2023-04-01T10:29:15;5.83;;;4.90;;
11090;SDS011;5599;52.210;21.046;2023-04-01T10:32:21;5.53;;;5.03;;
11090;SDS011;5599;52.210;21.046;2023-04-01T10:35:28;5.57;;;5.07;;
11090;SDS011;5599;52.210;21.046;2023-04-01T10:38:33;5.50;;;5.00;;
11090;SDS011;5599;52.210;21.046;2023-04-01T10:41:33;5.60;;;4.57;;
11090;SDS011;5599;52.210;21.046;2023-04-01T10:48:22;4.73;;;4.23;;
11090;SDS011;5599;52.210;21.046;2023-04-01T10:51:06;4.87;;;4.37;;
11090;SDS011;5599;52.210;21.046;2023-04-01T10:57:24;4.10;;;3.80;;
11090;SDS011;5599;52.210;21.046;2023-04-01T11:00:58;4.10;;;3.73;;
11090;SDS011;5599;52.210;21.046;2023-04-01T11:07:52;4.00;;;3.70;;
11090;SDS011;5599;52.210;21.046;2023-04-01T11:14:09;3.80;;;3.50;;
11090;SDS011;5599;52.210;21.046;2023-04-01T11:17:03;3.80;;;3.50;;
11090;SDS011;5599;52.210;21.046;2023-04-01T11:20:06;4.03;;;3.73;;
11090;SDS011;5599;52.210;21.046;2023-04-01T11:26:06;3.40;;;3.10;;
11090;SDS011;5599;52.210;21.046;2023-04-01T11:29:13;3.90;;;3.60;;
11090;SDS011;5599;52.210;21.046;2023-04-01T11:31:59;3.80;;;3.50;;
11090;SDS011;5599;52.210;21.046;2023-04-01T11:34:48;4.57;;;4.17;;
11090;SDS011;5599;52.210;21.046;2023-04-01T11:37:35;4.60;;;4.17;;
11090;SDS011;5599;52.210;21.046;2023-04-01T11:40:34;4.17;;;3.77;;
11090;SDS011;5599;52.210;21.046;2023-04-01T11:43:38;4.20;;;3.80;;
11090;SDS011;5599;52.210;21.046;2023-04-01T11:46:25;4.37;;;4.07;;
11090;SDS011;5599;52.210;21.046;2023-04-01T11:49:02;5.13;;;4.73;;
11090;SDS011;5599;52.210;21.046;2023-04-01T11:52:21;4.77;;;4.27;;
11090;SDS011;5599;52.210;21.046;2023-04-01T11:58:06;4.83;;;4.43;;
11090;SDS011;5599;52.210;21.046;2023-04-01T12:01:07;5.17;;;4.77;;
11090;SDS011;5599;52.210;21.046;2023-04-01T12:04:00;5.63;;;5.13;;
11090;SDS011;5599;52.210;21.046;2023-04-01T12:06:48;5.70;;;5.20;;
11090;SDS011;5599;52.210;21.046;2023-04-01T12:09:25;5.20;;;4.70;;
11090;SDS011;5599;52.210;21.046;2023-04-01T12:12:11;6.17;;;5.50;;
11090;SDS011;5599;52.210;21.046;2023-04-01T12:14:48;7.10;;;5.80;;
11090;SDS011;5599;52.210;21.046;2023-04-01T12:17:30;5.47;;;5.07;;
11090;SDS011;5599;52.210;21.046;2023-04-01T12:20:26;4.73;;;4.33;;
11090;SDS011;5599;52.210;21.046;2023-04-01T12:23:09;2.60;;;2.40;;
11090;SDS011;5599;52.210;21.046;2023-04-01T12:25:52;2.70;;;2.50;;
11090;SDS011;5599;52.210;21.046;2023-04-01T12:28:37;2.60;;;2.40;;
11090;SDS011;5599;52.210;21.046;2023-04-01T12:31:17;2.50;;;2.30;;
11090;SDS011;5599;52.210;21.046;2023-04-01T12:34:03;2.40;;;2.20;;
11090;SDS011;5599;52.210;21.046;2023-04-01T12:36:50;2.70;;;2.50;;
11090;SDS011;5599;52.210;21.046;2023-04-01T12:39:32;2.97;;;2.30;;
11090;SDS011;5599;52.210;21.046;2023-04-01T12:42:17;2.70;;;2.30;;
11090;SDS011;5599;52.210;21.046;2023-04-01T12:44:59;2.33;;;2.13;;
11090;SDS011;5599;52.210;21.046;2023-04-01T12:47:48;3.07;;;2.07;;
11090;SDS011;5599;52.210;21.046;2023-04-01T12:53:35;3.70;;;2.30;;
11090;SDS011;5599;52.210;21.046;2023-04-01T12:56:14;2.70;;;2.50;;
11090;SDS011;5599;52.210;21.046;2023-04-01T12:59:00;2.47;;;2.23;;
11090;SDS011;5599;52.210;21.046;2023-04-01T13:02:00;2.47;;;2.20;;
11090;SDS011;5599;52.210;21.046;2023-04-01T13:04:41;2.67;;;2.43;;
11090;SDS011;5599;52.210;21.046;2023-04-01T13:10:27;3.03;;;2.73;;
11090;SDS011;5599;52.210;21.046;2023-04-01T13:16:05;2.67;;;2.47;;
11090;SDS011;5599;52.210;21.046;2023-04-01T13:18:45;3.20;;;2.90;;
11090;SDS011;5599;52.210;21.046;2023-04-01T13:21:30;3.53;;;3.27;;
11090;SDS011;5599;52.210;21.046;2023-04-01T13:24:08;6.00;;;3.43;;
11090;SDS011;5599;52.210;21.046;2023-04-01T13:26:48;3.63;;;3.27;;
11090;SDS011;5599;52.210;21.046;2023-04-01T13:29:26;4.60;;;3.20;;
11090;SDS011;5599;52.210;21.046;2023-04-01T13:32:05;3.73;;;3.10;;
11090;SDS011;5599;52.210;21.046;2023-04-01T13:34:47;4.03;;;3.63;;
11090;SDS011;5599;52.210;21.046;2023-04-01T13:37:32;3.40;;;3.10;;
11090;SDS011;5599;52.210;21.046;2023-04-01T13:43:16;2.60;;;2.40;;
11090;SDS011;5599;52.210;21.046;2023-04-01T13:52:19;2.83;;;2.50;;
11090;SDS011;5599;52.210;21.046;2023-04-01T13:55:05;2.97;;;2.50;;
11090;SDS011;5599;52.210;21.046;2023-04-01T13:58:07;2.50;;;2.30;;
11090;SDS011;5599;52.210;21.046;2023-04-01T14:00:54;3.20;;;2.90;;
11090;SDS011;5599;52.210;21.046;2023-04-01T14:03:39;3.07;;;2.77;;
11090;SDS011;5599;52.210;21.046;2023-04-01T14:06:30;3.30;;;2.70;;
11090;SDS011;5599;52.210;21.046;2023-04-01T14:09:16;4.10;;;2.80;;
11090;SDS011;5599;52.210;21.046;2023-04-01T14:12:04;2.73;;;2.53;;
11090;SDS011;5599;52.210;21.046;2023-04-01T14:14:51;2.90;;;2.70;;
11090;SDS011;5599;52.210;21.046;2023-04-01T14:17:35;2.90;;;2.60;;
11090;SDS011;5599;52.210;21.046;2023-04-01T14:20:29;3.70;;;3.00;;
11090;SDS011;5599;52.210;21.046;2023-04-01T14:26:07;4.83;;;3.37;;
11090;SDS011;5599;52.210;21.046;2023-04-01T14:28:46;3.10;;;2.80;;
11090;SDS011;5599;52.210;21.046;2023-04-01T14:31:30;2.63;;;2.43;;
11090;SDS011;5599;52.210;21.046;2023-04-01T14:34:18;2.50;;;2.30;;
11090;SDS011;5599;52.210;21.046;2023-04-01T14:40:13;3.20;;;2.70;;
11090;SDS011;5599;52.210;21.046;2023-04-01T14:43:00;2.20;;;1.97;;
11090;SDS011;5599;52.210;21.046;2023-04-01T14:45:46;2.30;;;2.00;;
11090;SDS011;5599;52.210;21.046;2023-04-01T14:48:34;2.00;;;1.90;;
11090;SDS011;5599;52.210;21.046;2023-04-01T14:51:10;2.43;;;2.23;;
11090;SDS011;5599;52.210;21.046;2023-04-01T14:53:51;2.57;;;2.30;;
11090;SDS011;5599;52.210;21.046;2023-04-01T14:56:38;2.30;;;2.10;;
11090;SDS011;5599;52.210;21.046;2023-04-01T14:59:10;2.47;;;2.10;;
11090;SDS011;5599;52.210;21.046;2023-04-01T15:01:56;2.60;;;2.40;;
11090;SDS011;5599;52.210;21.046;2023-04-01T15:10:31;2.17;;;1.97;;
11090;SDS011;5599;52.210;21.046;2023-04-01T15:13:13;2.53;;;2.17;;
11090;SDS011;5599;52.210;21.046;2023-04-01T15:15:51;2.40;;;2.20;;
11090;SDS011;5599;52.210;21.046;2023-04-01T15:18:34;2.70;;;2.30;;
11090;SDS011;5599;52.210;21.046;2023-04-01T15:24:07;2.63;;;2.43;;
11090;SDS011;5599;52.210;21.046;2023-04-01T15:26:53;2.57;;;2.00;;
11090;SDS011;5599;52.210;21.046;2023-04-01T15:29:42;3.83;;;2.43;;
11090;SDS011;5599;52.210;21.046;2023-04-01T15:32:29;2.17;;;2.00;;
11090;SDS011;5599;52.210;21.046;2023-04-01T15:35:14;8.50;;;7.43;;
11090;SDS011;5599;52.210;21.046;2023-04-01T15:37:55;3.77;;;3.03;;
11090;SDS011;5599;52.210;21.046;2023-04-01T15:40:30;4.00;;;2.70;;
11090;SDS011;5599;52.210;21.046;2023-04-01T15:43:12;7.53;;;2.70;;
11090;SDS011;5599;52.210;21.046;2023-04-01T15:45:54;3.20;;;2.60;;
11090;SDS011;5599;52.210;21.046;2023-04-01T15:48:33;2.53;;;2.33;;
11090;SDS011;5599;52.210;21.046;2023-04-01T15:51:17;3.50;;;3.20;;
11090;SDS011;5599;52.210;21.046;2023-04-01T15:54:06;2.80;;;2.50;;
11090;SDS011;5599;52.210;21.046;2023-04-01T15:56:53;3.13;;;2.83;;
11090;SDS011;5599;52.210;21.046;2023-04-01T15:59:54;2.90;;;2.70;;
11090;SDS011;5599;52.210;21.046;2023-04-01T16:02:43;3.40;;;2.47;;
11090;SDS011;5599;52.210;21.046;2023-04-01T16:05:23;2.60;;;2.40;;
11090;SDS011;5599;52.210;21.046;2023-04-01T16:08:13;2.57;;;2.37;;
11090;SDS011;5599;52.210;21.046;2023-04-01T16:11:06;3.90;;;2.50;;
11090;SDS011;5599;52.210;21.046;2023-04-01T16:13:54;2.70;;;2.40;;
11090;SDS011;5599;52.210;21.046;2023-04-01T16:16:37;3.33;;;2.60;;
11090;SDS011;5599;52.210;21.046;2023-04-01T16:19:33;3.60;;;2.87;;
11090;SDS011;5599;52.210;21.046;2023-04-01T16:22:11;3.30;;;2.50;;
11090;SDS011;5599;52.210;21.046;2023-04-01T16:24:46;3.27;;;2.40;;
11090;SDS011;5599;52.210;21.046;2023-04-01T16:27:26;2.40;;;2.13;;
11090;SDS011;5599;52.210;21.046;2023-04-01T16:30:03;2.43;;;2.07;;
11090;SDS011;5599;52.210;21.046;2023-04-01T16:32:57;2.40;;;2.20;;
11090;SDS011;5599;52.210;21.046;2023-04-01T16:35:35;3.17;;;2.30;;
11090;SDS011;5599;52.210;21.046;2023-04-01T16:38:13;2.80;;;2.47;;
11090;SDS011;5599;52.210;21.046;2023-04-01T16:40:53;2.70;;;2.40;;
11090;SDS011;5599;52.210;21.046;2023-04-01T16:43:38;2.40;;;2.17;;
11090;SDS011;5599;52.210;21.046;2023-04-01T16:46:28;2.80;;;2.57;;
11090;SDS011;5599;52.210;21.046;2023-04-01T16:49:17;2.57;;;2.10;;
11090;SDS011;5599;52.210;21.046;2023-04-01T16:51:54;2.13;;;1.93;;
11090;SDS011;5599;52.210;21.046;2023-04-01T16:54:35;1.90;;;1.77;;
11090;SDS011;5599;52.210;21.046;2023-04-01T16:57:15;1.77;;;1.60;;
11090;SDS011;5599;52.210;21.046;2023-04-01T16:59:55;3.23;;;1.80;;
11090;SDS011;5599;52.210;21.046;2023-04-01T17:02:33;2.13;;;1.93;;
11090;SDS011;5599;52.210;21.046;2023-04-01T17:05:08;2.93;;;2.07;;
11090;SDS011;5599;52.210;21.046;2023-04-01T17:07:43;2.93;;;1.83;;
11090;SDS011;5599;52.210;21.046;2023-04-01T17:10:33;2.63;;;2.10;;
11090;SDS011;5599;52.210;21.046;2023-04-01T17:13:21;3.60;;;2.43;;
11090;SDS011;5599;52.210;21.046;2023-04-01T17:16:14;2.30;;;2.10;;
11090;SDS011;5599;52.210;21.046;2023-04-01T17:18:58;2.80;;;2.60;;
11090;SDS011;5599;52.210;21.046;2023-04-01T17:21:44;2.67;;;2.47;;
11090;SDS011;5599;52.210;21.046;2023-04-01T17:24:34;4.07;;;3.70;;
11090;SDS011;5599;52.210;21.046;2023-04-01T17:27:20;2.90;;;2.60;;
11090;SDS011;5599;52.210;21.046;2023-04-01T17:30:11;3.53;;;3.00;;
11090;SDS011;5599;52.210;21.046;2023-04-01T17:32:55;3.23;;;2.93;;
11090;SDS011;5599;52.210;21.046;2023-04-01T17:35:39;3.80;;;2.63;;
11090;SDS011;5599;52.210;21.046;2023-04-01T17:38:23;3.97;;;2.80;;